Time;durP1;ratioP1;P1;durP2;ratioP2;P2;SDS_P1;SDS_P2;PMS_P1;PMS_P2;Temp;Humidity;BMP_temperature;BMP_pressure;BME280_temperature;BME280_humidity;BME280_pressure;Samples;Min_cycle;Max_cycle;Signal;HPM_P1;HPM_P2
2024/04/07 00:00:54;;;;;;;5.25;4.53;;;;;;;;;;2051307;28;20328;-78
2024/04/07 00:02:13;;;;;;;5.13;4.50;;;;;;;;;;2050261;28;20070;-78
2024/04/07 00:03:33;;;;;;;5.95;4.50;;;;;;;;;;2046864;28;20027;-78
2024/04/07 00:04:52;;;;;;;5.78;4.43;;;;;;;;;;2053495;28;20500;-78
2024/04/07 00:06:11;;;;;;;5.25;4.05;;;;;;;;;;2045427;28;20043;-79
2024/04/07 00:07:31;;;;;;;5.35;4.05;;;;;;;;;;2043276;28;20116;-79
2024/04/07 00:08:53;;;;;;;5.28;4.75;;;;;;;;;;2046272;28;20023;-79
2024/04/07 00:10:13;;;;;;;6.25;4.47;;;;;;;;;;2042153;28;20043;-80
2024/04/07 00:11:32;;;;;;;8.20;4.57;;;;;;;;;;2039524;28;20032;-80
2024/04/07 00:12:51;;;;;;;6.18;5.43;;;;;;;;;;2039029;29;20034;-78
2024/04/07 00:14:10;;;;;;;6.32;4.85;;;;;;;;;;2035135;29;20556;-79
2024/04/07 00:15:30;;;;;;;5.97;5.38;;;;;;;;;;2034544;29;20028;-79
2024/04/07 00:16:50;;;;;;;6.25;5.28;;;;;;;;;;2036957;29;20035;-79
2024/04/07 00:18:09;;;;;;;7.07;5.18;;;;;;;;;;2036751;29;20110;-79
2024/04/07 00:19:29;;;;;;;12.40;5.70;;;;;;;;;;2034183;29;20028;-79
2024/04/07 00:20:58;;;;;;;8.30;5.18;;;;;;;;;;2034640;29;20024;-78
2024/04/07 00:22:17;;;;;;;8.57;5.40;;;;;;;;;;2036205;29;20035;-78
2024/04/07 00:23:37;;;;;;;7.47;5.55;;;;;;;;;;2031918;29;20035;-79
2024/04/07 00:24:56;;;;;;;5.30;4.80;;;;;;;;;;2036592;29;20032;-80
2024/04/07 00:26:16;;;;;;;7.57;5.57;;;;;;;;;;2038641;29;20021;-78
2024/04/07 00:27:36;;;;;;;7.32;5.78;;;;;;;;;;2036327;29;20028;-79
2024/04/07 00:28:55;;;;;;;11.40;6.18;;;;;;;;;;2038467;29;20039;-79
2024/04/07 00:30:14;;;;;;;8.27;5.57;;;;;;;;;;2034207;29;20484;-78
2024/04/07 00:31:33;;;;;;;9.55;5.40;;;;;;;;;;2043892;28;20070;-79
2024/04/07 00:32:52;;;;;;;11.98;5.93;;;;;;;;;;2039988;28;20028;-79
2024/04/07 00:34:11;;;;;;;13.02;6.82;;;;;;;;;;2039826;29;20413;-80
2024/04/07 00:35:30;;;;;;;8.18;5.80;;;;;;;;;;2041242;28;20038;-80
2024/04/07 00:36:49;;;;;;;11.60;5.85;;;;;;;;;;2038443;29;20031;-78
2024/04/07 00:38:12;;;;;;;9.43;5.60;;;;;;;;;;2041378;28;20039;-80
2024/04/07 00:39:31;;;;;;;8.35;5.85;;;;;;;;;;2037807;29;20031;-80
2024/04/07 00:40:53;;;;;;;8.55;5.70;;;;;;;;;;2040359;28;20483;-78
2024/04/07 00:42:13;;;;;;;10.55;6.35;;;;;;;;;;2039872;28;20032;-79
2024/04/07 00:43:32;;;;;;;8.82;5.85;;;;;;;;;;2037402;29;20514;-79
2024/04/07 00:44:51;;;;;;;11.80;5.85;;;;;;;;;;2037751;29;20039;-79
2024/04/07 00:46:10;;;;;;;10.57;5.95;;;;;;;;;;2034484;29;20031;-79
2024/04/07 00:47:31;;;;;;;10.52;6.47;;;;;;;;;;2037169;29;20036;-78
2024/04/07 00:48:50;;;;;;;9.13;6.32;;;;;;;;;;2038414;29;20538;-80
2024/04/07 00:50:10;;;;;;;9.32;6.95;;;;;;;;;;2037260;29;20032;-80
2024/04/07 00:51:30;;;;;;;13.18;6.53;;;;;;;;;;2044695;28;20027;-80
2024/04/07 00:52:49;;;;;;;10.25;6.18;;;;;;;;;;2038159;29;20055;-80
2024/04/07 00:54:09;;;;;;;10.95;6.07;;;;;;;;;;2033898;29;20596;-81
2024/04/07 00:55:29;;;;;;;12.80;6.78;;;;;;;;;;2034316;29;20036;-80
2024/04/07 00:56:48;;;;;;;13.40;6.50;;;;;;;;;;2041607;28;20113;-80
2024/04/07 00:58:08;;;;;;;12.85;6.32;;;;;;;;;;2037689;29;20044;-80
2024/04/07 00:59:27;;;;;;;11.40;6.85;;;;;;;;;;2041656;28;20043;-80
2024/04/07 01:00:47;;;;;;;9.75;6.53;;;;;;;;;;2036919;29;20035;-80
2024/04/07 01:02:08;;;;;;;10.25;6.65;;;;;;;;;;2034481;29;20106;-80
2024/04/07 01:03:27;;;;;;;13.80;7.13;;;;;;;;;;2037580;29;20482;-80
2024/04/07 01:04:46;;;;;;;10.95;6.38;;;;;;;;;;2037414;29;20032;-80
2024/04/07 01:06:05;;;;;;;11.98;6.50;;;;;;;;;;2037317;29;20036;-80
2024/04/07 01:07:25;;;;;;;11.55;6.93;;;;;;;;;;2036660;29;20032;-80
2024/04/07 01:08:44;;;;;;;9.05;6.35;;;;;;;;;;2037971;29;20485;-80
2024/04/07 01:10:06;;;;;;;10.27;5.72;;;;;;;;;;2045911;28;20031;-79
2024/04/07 01:11:26;;;;;;;10.77;6.25;;;;;;;;;;2042580;28;20047;-80
2024/04/07 01:12:52;;;;;;;9.65;6.03;;;;;;;;;;2048494;28;20031;-80
2024/04/07 01:14:11;;;;;;;11.25;6.10;;;;;;;;;;2044842;28;20043;-80
2024/04/07 01:15:30;;;;;;;12.02;6.38;;;;;;;;;;2045080;28;20031;-80
2024/04/07 01:16:49;;;;;;;8.10;6.15;;;;;;;;;;2045585;28;20039;-80
2024/04/07 01:18:08;;;;;;;12.13;6.55;;;;;;;;;;2044486;28;20035;-80
2024/04/07 01:19:27;;;;;;;12.30;5.90;;;;;;;;;;2043842;28;20047;-79
2024/04/07 01:20:48;;;;;;;11.15;6.30;;;;;;;;;;2040167;28;20087;-79
2024/04/07 01:22:11;;;;;;;12.20;6.68;;;;;;;;;;2049583;28;20680;-80
2024/04/07 01:23:30;;;;;;;;;;;;;;;;;;2048500;28;20023;-79
2024/04/07 01:24:49;;;;;;;12.90;6.57;;;;;;;;;;2046850;28;20300;-79
2024/04/07 01:26:09;;;;;;;13.82;6.90;;;;;;;;;;2048039;28;20028;-79
2024/04/07 01:27:31;;;;;;;14.52;6.85;;;;;;;;;;2045188;28;20508;-80
2024/04/07 01:28:53;;;;;;;16.58;7.30;;;;;;;;;;2048932;28;20030;-79
2024/04/07 01:30:12;;;;;;;19.65;7.32;;;;;;;;;;2050673;28;21132;-79
2024/04/07 01:31:31;;;;;;;12.73;7.07;;;;;;;;;;2045693;28;20436;-79
2024/04/07 01:32:59;;;;;;;19.33;7.45;;;;;;;;;;2044773;28;20027;-79
2024/04/07 01:34:18;;;;;;;15.23;7.53;;;;;;;;;;2049061;28;20027;-79
2024/04/07 01:35:37;;;;;;;24.50;6.72;;;;;;;;;;2049014;28;20027;-79
2024/04/07 01:36:59;;;;;;;12.50;6.57;;;;;;;;;;2046572;28;20027;-80
2024/04/07 01:38:21;;;;;;;19.48;7.22;;;;;;;;;;2051669;28;20118;-80
2024/04/07 01:39:43;;;;;;;14.48;6.78;;;;;;;;;;2046197;28;20031;-79
2024/04/07 01:41:03;;;;;;;19.40;7.10;;;;;;;;;;2042189;28;20039;-80
2024/04/07 01:42:23;;;;;;;15.07;7.40;;;;;;;;;;2044355;28;20023;-79
2024/04/07 01:43:42;;;;;;;18.25;8.07;;;;;;;;;;2045475;28;20027;-79
2024/04/07 01:45:02;;;;;;;16.77;7.25;;;;;;;;;;2056071;28;20027;-79
2024/04/07 01:46:22;;;;;;;19.08;7.40;;;;;;;;;;2050468;28;20032;-79
2024/04/07 01:47:44;;;;;;;20.33;7.30;;;;;;;;;;2053836;28;20031;-78
2024/04/07 01:49:06;;;;;;;15.45;7.30;;;;;;;;;;2043881;28;20031;-80
2024/04/07 01:50:26;;;;;;;15.80;6.93;;;;;;;;;;2048003;28;20098;-80
2024/04/07 01:51:48;;;;;;;20.83;7.50;;;;;;;;;;2049259;28;20121;-79
2024/04/07 01:53:08;;;;;;;14.73;7.55;;;;;;;;;;2050244;28;20047;-80
2024/04/07 01:54:32;;;;;;;12.60;6.72;;;;;;;;;;2047333;28;20039;-79
2024/04/07 01:55:53;;;;;;;12.88;6.55;;;;;;;;;;2044890;28;20059;-79
2024/04/07 01:57:21;;;;;;;15.40;7.85;;;;;;;;;;2045823;28;20030;-80
2024/04/07 01:58:40;;;;;;;11.77;6.85;;;;;;;;;;2044877;28;20408;-80
2024/04/07 01:59:59;;;;;;;11.55;6.82;;;;;;;;;;2043879;28;20043;-78
2024/04/07 02:01:18;;;;;;;11.73;6.45;;;;;;;;;;2044754;28;20035;-78
2024/04/07 02:02:37;;;;;;;11.82;6.10;;;;;;;;;;2048236;28;20503;-79
2024/04/07 02:03:59;;;;;;;11.77;6.07;;;;;;;;;;2047618;28;20058;-79
2024/04/07 02:05:21;;;;;;;9.25;6.38;;;;;;;;;;2045472;28;20027;-79
2024/04/07 02:06:41;;;;;;;6.78;5.50;;;;;;;;;;2051972;28;20027;-79
2024/04/07 02:08:04;;;;;;;7.60;5.35;;;;;;;;;;2048034;28;20027;-79
2024/04/07 02:09:28;;;;;;;11.00;6.07;;;;;;;;;;2045102;28;20027;-79
2024/04/07 02:10:53;;;;;;;8.07;5.78;;;;;;;;;;2045816;28;20053;-80
2024/04/07 02:12:15;;;;;;;9.18;6.30;;;;;;;;;;2044050;28;20043;-80
2024/04/07 02:13:38;;;;;;;7.65;5.57;;;;;;;;;;2050399;28;20038;-79
2024/04/07 02:14:59;;;;;;;8.85;5.70;;;;;;;;;;2051811;28;20060;-79
2024/04/07 02:16:20;;;;;;;6.38;5.63;;;;;;;;;;2054360;28;20035;-79
2024/04/07 02:17:42;;;;;;;9.23;6.15;;;;;;;;;;2046001;28;20796;-79
2024/04/07 02:19:14;;;;;;;6.50;5.05;;;;;;;;;;2051387;28;20031;-79
2024/04/07 02:20:33;;;;;;;7.90;5.68;;;;;;;;;;2052901;28;20586;-79
2024/04/07 02:21:53;;;;;;;6.65;5.22;;;;;;;;;;2052847;28;20035;-80
2024/04/07 02:23:15;;;;;;;8.38;5.07;;;;;;;;;;2049928;28;20043;-79
2024/04/07 02:24:34;;;;;;;6.78;5.30;;;;;;;;;;2044765;28;20027;-78
2024/04/07 02:25:54;;;;;;;6.78;5.68;;;;;;;;;;2049670;28;20035;-78
2024/04/07 02:27:13;;;;;;;6.43;5.43;;;;;;;;;;2044345;28;20107;-79
2024/04/07 02:28:33;;;;;;;7.55;5.40;;;;;;;;;;2049794;28;20027;-79
2024/04/07 02:29:55;;;;;;;7.18;5.35;;;;;;;;;;2052623;28;20019;-78
2024/04/07 02:31:16;;;;;;;6.88;5.00;;;;;;;;;;2042277;28;20035;-79
2024/04/07 02:32:35;;;;;;;6.60;5.35;;;;;;;;;;2040877;28;20035;-78
2024/04/07 02:33:54;;;;;;;5.82;5.00;;;;;;;;;;2041201;28;20119;-79
2024/04/07 02:35:18;;;;;;;7.43;5.32;;;;;;;;;;2049783;28;20035;-78
2024/04/07 02:36:37;;;;;;;6.43;4.85;;;;;;;;;;2051686;28;20030;-78
2024/04/07 02:37:57;;;;;;;5.53;4.80;;;;;;;;;;2052632;28;20031;-79
2024/04/07 02:39:17;;;;;;;7.53;4.70;;;;;;;;;;2053461;28;20038;-78
2024/04/07 02:40:38;;;;;;;7.90;5.13;;;;;;;;;;2050781;28;20110;-78
2024/04/07 02:41:56;;;;;;;5.07;4.57;;;;;;;;;;2052636;28;20027;-79
2024/04/07 02:43:16;;;;;;;4.75;4.35;;;;;;;;;;2044620;28;20031;-79
2024/04/07 02:48:06;;;;;;;8.63;5.22;;;;;;;;;;2051914;28;20023;-79
2024/04/07 02:49:25;;;;;;;5.50;4.63;;;;;;;;;;2044824;28;20114;-79
2024/04/07 02:50:45;;;;;;;6.82;5.07;;;;;;;;;;2050181;28;20488;-79
2024/04/07 02:52:04;;;;;;;5.20;4.13;;;;;;;;;;2043821;28;20039;-79
2024/04/07 02:53:23;;;;;;;6.60;4.30;;;;;;;;;;2049042;28;20701;-78
2024/04/07 02:54:42;;;;;;;6.97;4.18;;;;;;;;;;2051804;28;20035;-79
2024/04/07 02:56:02;;;;;;;5.70;4.70;;;;;;;;;;2050723;28;20035;-78
2024/04/07 02:57:21;;;;;;;6.78;4.80;;;;;;;;;;2042636;28;20031;-79
2024/04/07 02:58:40;;;;;;;7.22;4.57;;;;;;;;;;2040328;28;20028;-79
2024/04/07 02:59:58;;;;;;;5.07;4.60;;;;;;;;;;2039011;28;20126;-79
2024/04/07 03:01:17;;;;;;;7.47;4.70;;;;;;;;;;2041600;28;20031;-78
2024/04/07 03:02:36;;;;;;;6.18;4.93;;;;;;;;;;2043853;28;20039;-78
2024/04/07 03:03:55;;;;;;;7.53;4.18;;;;;;;;;;2045071;28;20055;-78
2024/04/07 03:05:16;;;;;;;8.68;4.70;;;;;;;;;;2043991;28;20082;-79
2024/04/07 03:06:35;;;;;;;5.38;4.40;;;;;;;;;;2050733;28;20035;-78
2024/04/07 03:07:54;;;;;;;7.65;5.03;;;;;;;;;;2043917;28;20027;-78
2024/04/07 03:09:14;;;;;;;8.05;4.80;;;;;;;;;;2051308;28;20023;-80
2024/04/07 03:10:33;;;;;;;10.15;4.97;;;;;;;;;;2058396;28;20038;-79
2024/04/07 03:11:52;;;;;;;7.72;4.95;;;;;;;;;;2054363;28;20031;-77
2024/04/07 03:13:12;;;;;;;5.30;4.80;;;;;;;;;;2058083;28;20035;-80
2024/04/07 03:14:31;;;;;;;6.72;4.70;;;;;;;;;;2052951;28;20039;-79
2024/04/07 03:15:50;;;;;;;5.50;4.40;;;;;;;;;;2049928;28;20031;-79
2024/04/07 03:17:09;;;;;;;9.98;4.50;;;;;;;;;;2050179;28;20043;-78
2024/04/07 03:18:28;;;;;;;9.68;5.28;;;;;;;;;;2055112;28;20034;-78
2024/04/07 03:19:48;;;;;;;5.47;4.80;;;;;;;;;;2050690;28;20031;-77
2024/04/07 03:21:09;;;;;;;11.00;5.50;;;;;;;;;;2054077;28;20031;-77
2024/04/07 03:22:28;;;;;;;6.60;4.93;;;;;;;;;;2046319;28;20413;-78
2024/04/07 03:23:48;;;;;;;9.65;5.22;;;;;;;;;;2050884;28;20035;-79
2024/04/07 03:25:06;;;;;;;7.45;5.03;;;;;;;;;;2054851;28;20031;-78
2024/04/07 03:26:26;;;;;;;6.63;5.57;;;;;;;;;;2044473;28;20031;-78
2024/04/07 03:27:45;;;;;;;7.88;5.13;;;;;;;;;;2040291;28;20024;-79
2024/04/07 03:29:04;;;;;;;8.02;5.13;;;;;;;;;;2049488;28;20031;-79
2024/04/07 03:30:23;;;;;;;7.57;5.38;;;;;;;;;;2050204;28;20034;-79
2024/04/07 03:31:42;;;;;;;7.65;5.40;;;;;;;;;;2053065;28;20034;-79
2024/04/07 03:33:04;;;;;;;6.75;5.55;;;;;;;;;;2044068;28;20035;-80
2024/04/07 03:34:23;;;;;;;8.77;5.28;;;;;;;;;;2047612;28;20049;-79
2024/04/07 03:35:42;;;;;;;16.40;6.50;;;;;;;;;;2042902;28;20499;-79
2024/04/07 03:37:01;;;;;;;7.88;5.43;;;;;;;;;;2042148;28;20150;-79
2024/04/07 03:38:21;;;;;;;8.32;5.93;;;;;;;;;;2048357;28;20034;-79
2024/04/07 03:39:40;;;;;;;8.80;6.20;;;;;;;;;;2043229;28;20035;-79
2024/04/07 03:41:02;;;;;;;10.52;5.90;;;;;;;;;;2048921;28;20063;-81
2024/04/07 03:42:21;;;;;;;9.50;5.85;;;;;;;;;;2044494;28;20036;-79
2024/04/07 03:43:40;;;;;;;9.20;6.88;;;;;;;;;;2048378;28;20035;-79
2024/04/07 03:44:59;;;;;;;7.57;6.50;;;;;;;;;;2052535;28;20396;-80
2024/04/07 03:46:19;;;;;;;9.40;6.72;;;;;;;;;;2043753;28;20114;-80
2024/04/07 03:47:40;;;;;;;9.02;6.10;;;;;;;;;;2049780;28;20026;-79
2024/04/07 03:48:59;;;;;;;16.35;7.65;;;;;;;;;;2044263;28;20027;-80
2024/04/07 03:50:18;;;;;;;15.10;7.65;;;;;;;;;;2045724;28;20049;-79
2024/04/07 03:51:38;;;;;;;14.35;7.28;;;;;;;;;;2050058;28;20414;-79
2024/04/07 03:52:57;;;;;;;13.68;7.72;;;;;;;;;;2046640;28;20154;-79
2024/04/07 03:54:16;;;;;;;13.45;7.93;;;;;;;;;;2042559;28;20042;-78
2024/04/07 03:55:35;;;;;;;15.13;8.32;;;;;;;;;;2050452;28;20039;-79
2024/04/07 03:56:55;;;;;;;15.48;7.88;;;;;;;;;;2054394;28;20030;-79
2024/04/07 03:58:14;;;;;;;15.98;8.25;;;;;;;;;;2046461;28;20488;-79
2024/04/07 03:59:33;;;;;;;13.77;7.80;;;;;;;;;;2045670;28;20064;-80
2024/04/07 04:00:52;;;;;;;17.02;8.23;;;;;;;;;;2045814;28;20615;-79
2024/04/07 04:02:19;;;;;;;14.90;8.38;;;;;;;;;;2051347;28;20031;-78
2024/04/07 04:03:38;;;;;;;15.98;7.72;;;;;;;;;;2053260;28;20484;-79
2024/04/07 04:04:58;;;;;;;16.70;8.50;;;;;;;;;;2044215;28;20844;-78
2024/04/07 04:06:18;;;;;;;14.65;8.27;;;;;;;;;;2045021;28;20024;-78
2024/04/07 04:07:37;;;;;;;13.48;8.15;;;;;;;;;;2050413;28;20031;-78
2024/04/07 04:08:56;;;;;;;12.13;8.27;;;;;;;;;;2052321;28;20027;-78
2024/04/07 04:10:15;;;;;;;13.48;8.07;;;;;;;;;;2044040;28;20027;-78
2024/04/07 04:11:35;;;;;;;19.38;8.68;;;;;;;;;;2039889;28;20047;-78
2024/04/07 04:12:53;;;;;;;19.55;9.13;;;;;;;;;;2049655;28;21727;-78
2024/04/07 04:14:12;;;;;;;16.70;7.95;;;;;;;;;;2054790;28;20030;-78
2024/04/07 04:15:34;;;;;;;15.68;8.75;;;;;;;;;;2046425;28;20039;-78
2024/04/07 04:16:54;;;;;;;12.98;8.07;;;;;;;;;;2041869;28;20072;-79
2024/04/07 04:18:12;;;;;;;16.45;8.40;;;;;;;;;;2049230;28;20026;-79
2024/04/07 04:19:32;;;;;;;16.90;9.35;;;;;;;;;;2052839;28;20504;-78
2024/04/07 04:20:51;;;;;;;20.13;9.05;;;;;;;;;;2052457;28;20038;-78
2024/04/07 04:22:10;;;;;;;18.85;8.90;;;;;;;;;;2045903;28;20031;-78
2024/04/07 04:23:29;;;;;;;14.57;8.65;;;;;;;;;;2050749;28;20022;-77
2024/04/07 04:24:49;;;;;;;14.02;7.60;;;;;;;;;;2047273;28;20035;-77
2024/04/07 04:26:08;;;;;;;23.27;9.27;;;;;;;;;;2040347;28;20035;-79
2024/04/07 04:27:28;;;;;;;20.88;9.13;;;;;;;;;;2042726;28;20067;-78
2024/04/07 04:28:47;;;;;;;21.55;8.73;;;;;;;;;;2041714;28;20031;-77
2024/04/07 04:30:06;;;;;;;19.85;7.78;;;;;;;;;;2049585;28;20027;-78
2024/04/07 04:31:25;;;;;;;19.27;8.30;;;;;;;;;;2043270;28;20035;-79
2024/04/07 04:32:45;;;;;;;17.98;7.88;;;;;;;;;;2039919;28;20031;-77
2024/04/07 04:34:04;;;;;;;21.10;8.57;;;;;;;;;;2041668;28;20042;-77
2024/04/07 04:35:23;;;;;;;22.52;8.98;;;;;;;;;;2042799;28;20540;-79
2024/04/07 04:36:42;;;;;;;21.33;7.93;;;;;;;;;;2042354;28;20039;-79
2024/04/07 04:38:03;;;;;;;20.02;8.68;;;;;;;;;;2042265;28;20468;-79
2024/04/07 04:39:22;;;;;;;15.50;7.90;;;;;;;;;;2045785;28;20337;-78
2024/04/07 04:40:41;;;;;;;21.98;8.63;;;;;;;;;;2051380;28;20038;-79
2024/04/07 04:42:00;;;;;;;17.83;9.27;;;;;;;;;;2054525;28;20039;-78
2024/04/07 04:43:19;;;;;;;16.98;8.38;;;;;;;;;;2053482;28;20030;-78
2024/04/07 04:44:38;;;;;;;22.42;8.50;;;;;;;;;;2042964;28;20024;-78
2024/04/07 04:46:01;;;;;;;19.58;8.70;;;;;;;;;;2041465;28;20035;-79
2024/04/07 04:47:20;;;;;;;17.75;8.43;;;;;;;;;;2050020;28;20031;-78
2024/04/07 04:48:39;;;;;;;18.13;8.95;;;;;;;;;;2045232;28;20031;-78
2024/04/07 04:49:58;;;;;;;19.42;8.50;;;;;;;;;;2050013;28;20034;-79
2024/04/07 04:51:17;;;;;;;18.35;8.43;;;;;;;;;;2055069;28;20034;-78
2024/04/07 04:52:36;;;;;;;15.68;7.85;;;;;;;;;;2045020;28;20067;-78
2024/04/07 04:53:55;;;;;;;19.92;8.45;;;;;;;;;;2050564;28;20038;-79
2024/04/07 04:55:14;;;;;;;22.77;8.50;;;;;;;;;;2053339;28;20034;-78
2024/04/07 04:56:33;;;;;;;21.70;8.30;;;;;;;;;;2054252;28;20030;-78
2024/04/07 04:57:52;;;;;;;16.00;8.68;;;;;;;;;;2045686;28;20102;-79
2024/04/07 04:59:11;;;;;;;21.95;9.35;;;;;;;;;;2045936;28;20114;-79
2024/04/07 05:00:30;;;;;;;17.83;9.07;;;;;;;;;;2049955;28;20488;-78
2024/04/07 05:01:49;;;;;;;17.52;7.55;;;;;;;;;;2053910;28;20393;-78
2024/04/07 05:03:08;;;;;;;22.40;8.63;;;;;;;;;;2056115;28;20062;-78
2024/04/07 05:04:27;;;;;;;19.35;8.85;;;;;;;;;;2046708;28;20039;-79
2024/04/07 05:05:47;;;;;;;24.52;8.50;;;;;;;;;;2039624;28;20059;-79
2024/04/07 05:07:06;;;;;;;20.77;7.50;;;;;;;;;;2043371;28;20023;-77
2024/04/07 05:08:25;;;;;;;17.55;8.30;;;;;;;;;;2042387;28;20035;-78
2024/04/07 05:09:46;;;;;;;19.25;7.50;;;;;;;;;;2041844;28;20019;-78
2024/04/07 05:11:06;;;;;;;24.70;8.65;;;;;;;;;;2039824;28;20063;-79
2024/04/07 05:12:25;;;;;;;32.20;8.32;;;;;;;;;;2048920;28;20579;-78
2024/04/07 05:13:44;;;;;;;16.42;8.25;;;;;;;;;;2053917;28;20082;-79
2024/04/07 05:15:03;;;;;;;23.05;8.13;;;;;;;;;;2051204;28;20142;-77
2024/04/07 05:16:22;;;;;;;21.90;8.52;;;;;;;;;;2051713;28;20027;-78
2024/04/07 05:17:41;;;;;;;19.40;8.10;;;;;;;;;;2045846;28;20424;-80
2024/04/07 05:19:04;;;;;;;27.02;8.68;;;;;;;;;;2049039;28;20074;-78
2024/04/07 05:20:23;;;;;;;17.88;7.90;;;;;;;;;;2045638;28;20035;-78
2024/04/07 05:21:44;;;;;;;27.60;8.07;;;;;;;;;;2045198;28;20420;-78
2024/04/07 05:23:02;;;;;;;18.95;7.90;;;;;;;;;;2050172;28;20031;-78
2024/04/07 05:24:21;;;;;;;20.13;7.60;;;;;;;;;;2051315;28;20461;-78
2024/04/07 05:25:41;;;;;;;18.45;7.20;;;;;;;;;;2045866;28;20039;-78
2024/04/07 05:27:03;;;;;;;20.30;8.18;;;;;;;;;;2049314;28;20027;-78
2024/04/07 05:28:22;;;;;;;17.63;6.78;;;;;;;;;;2045280;28;20145;-78
2024/04/07 05:29:41;;;;;;;17.20;7.65;;;;;;;;;;2046664;28;20031;-79
2024/04/07 05:31:04;;;;;;;17.33;7.95;;;;;;;;;;2043150;28;20031;-79
2024/04/07 05:32:23;;;;;;;20.95;8.07;;;;;;;;;;2051169;28;20411;-79
2024/04/07 05:33:43;;;;;;;21.23;8.27;;;;;;;;;;2044789;28;20473;-80
2024/04/07 05:35:04;;;;;;;16.02;7.63;;;;;;;;;;2048883;28;20109;-80
2024/04/07 05:36:23;;;;;;;24.50;7.65;;;;;;;;;;2045214;28;20027;-79
2024/04/07 05:37:46;;;;;;;16.92;7.45;;;;;;;;;;2042073;28;20023;-79
2024/04/07 05:39:05;;;;;;;28.13;7.25;;;;;;;;;;2050647;28;20050;-78
2024/04/07 05:40:24;;;;;;;16.02;6.85;;;;;;;;;;2052105;28;20039;-78
2024/04/07 05:41:43;;;;;;;16.58;7.05;;;;;;;;;;2045382;28;20110;-78
2024/04/07 05:43:02;;;;;;;14.23;6.25;;;;;;;;;;2041808;28;20035;-79
2024/04/07 05:44:21;;;;;;;15.48;6.25;;;;;;;;;;2048925;28;20027;-78
2024/04/07 05:45:41;;;;;;;15.95;7.32;;;;;;;;;;2045339;28;20031;-78
2024/04/07 05:47:00;;;;;;;13.73;6.75;;;;;;;;;;2048758;28;20519;-78
2024/04/07 05:48:20;;;;;;;15.85;7.18;;;;;;;;;;2051477;28;20098;-78
2024/04/07 05:49:39;;;;;;;16.85;6.10;;;;;;;;;;2052291;28;20019;-78
2024/04/07 05:50:59;;;;;;;14.45;6.20;;;;;;;;;;2054161;28;20034;-79
2024/04/07 05:52:18;;;;;;;16.80;6.78;;;;;;;;;;2051750;28;20054;-79
2024/04/07 05:53:37;;;;;;;14.93;5.80;;;;;;;;;;2050443;28;20027;-79
2024/04/07 05:54:56;;;;;;;15.05;6.05;;;;;;;;;;2045010;28;20027;-79
2024/04/07 05:56:15;;;;;;;14.30;6.72;;;;;;;;;;2049602;28;20023;-80
2024/04/07 05:57:34;;;;;;;13.73;5.90;;;;;;;;;;2045529;28;20092;-81
2024/04/07 05:58:53;;;;;;;18.50;6.25;;;;;;;;;;2050215;28;20078;-81
2024/04/07 06:00:12;;;;;;;20.42;5.82;;;;;;;;;;2044540;28;21011;-82
2024/04/07 06:01:31;;;;;;;14.10;6.22;;;;;;;;;;2041488;28;20034;-79
2024/04/07 06:02:50;;;;;;;16.77;6.38;;;;;;;;;;2043839;28;20022;-82
2024/04/07 06:04:08;;;;;;;14.88;6.75;;;;;;;;;;2044537;28;20122;-82
2024/04/07 06:05:27;;;;;;;13.63;5.97;;;;;;;;;;2047450;28;20042;-80
2024/04/07 06:06:47;;;;;;;16.92;7.22;;;;;;;;;;2052905;28;20035;-81
2024/04/07 06:08:07;;;;;;;16.08;5.75;;;;;;;;;;2052901;28;20038;-84
2024/04/07 06:09:27;;;;;;;20.52;6.78;;;;;;;;;;2053153;28;20690;-80
2024/04/07 06:10:46;;;;;;;14.52;6.40;;;;;;;;;;2048175;28;20031;-80
2024/04/07 06:12:05;;;;;;;16.17;5.78;;;;;;;;;;2045004;28;20118;-81
2024/04/07 06:13:24;;;;;;;14.38;6.10;;;;;;;;;;2044363;28;20106;-81
2024/04/07 06:14:43;;;;;;;16.58;6.35;;;;;;;;;;2039301;29;20023;-81
2024/04/07 06:16:02;;;;;;;14.45;6.57;;;;;;;;;;2047458;28;20090;-80
2024/04/07 06:17:21;;;;;;;15.10;5.57;;;;;;;;;;2044849;28;20035;-85
2024/04/07 06:18:40;;;;;;;16.38;6.88;;;;;;;;;;2041296;28;20039;-81
2024/04/07 06:19:59;;;;;;;14.40;5.50;;;;;;;;;;2041666;28;20027;-84
2024/04/07 06:21:21;;;;;;;14.93;6.07;;;;;;;;;;2046698;28;20445;-85
2024/04/07 06:22:39;;;;;;;17.15;6.60;;;;;;;;;;2054007;28;20023;-83
2024/04/07 06:23:58;;;;;;;20.40;5.53;;;;;;;;;;2048993;28;20405;-83
2024/04/07 06:25:18;;;;;;;14.32;5.72;;;;;;;;;;2045606;28;20023;-85
2024/04/07 06:26:37;;;;;;;17.60;5.93;;;;;;;;;;2053145;28;20030;-85
2024/04/07 06:27:56;;;;;;;22.00;6.78;;;;;;;;;;2057047;28;20026;-84
2024/04/07 06:29:15;;;;;;;14.00;6.28;;;;;;;;;;2048218;28;20062;-83
2024/04/07 06:30:35;;;;;;;16.80;5.65;;;;;;;;;;2054262;28;20030;-84
2024/04/07 06:31:54;;;;;;;21.52;6.90;;;;;;;;;;2056431;28;20031;-86
2024/04/07 06:33:13;;;;;;;11.80;5.07;;;;;;;;;;2049195;28;20043;-86
2024/04/07 06:34:32;;;;;;;15.85;6.15;;;;;;;;;;2058552;28;20031;-83
2024/04/07 06:35:50;;;;;;;10.20;5.18;;;;;;;;;;2057066;28;20011;-84
2024/04/07 06:37:09;;;;;;;11.32;5.95;;;;;;;;;;2052966;28;20031;-85
2024/04/07 06:38:29;;;;;;;11.88;5.40;;;;;;;;;;2054413;29;20110;-85
2024/04/07 06:39:48;;;;;;;15.32;6.40;;;;;;;;;;2057168;28;20054;-79
2024/04/07 06:41:07;;;;;;;14.77;5.95;;;;;;;;;;2049735;28;20036;-79
2024/04/07 06:42:27;;;;;;;12.07;5.80;;;;;;;;;;2058796;28;20058;-80
2024/04/07 06:43:46;;;;;;;11.45;5.85;;;;;;;;;;2057603;28;20489;-82
2024/04/07 06:45:06;;;;;;;17.88;5.82;;;;;;;;;;2047981;28;20035;-82
2024/04/07 06:46:25;;;;;;;14.48;5.53;;;;;;;;;;2051150;28;20027;-82
2024/04/07 06:47:44;;;;;;;17.98;6.15;;;;;;;;;;2056490;28;20038;-82
2024/04/07 06:49:03;;;;;;;12.75;6.40;;;;;;;;;;2047604;28;20385;-81
2024/04/07 06:50:22;;;;;;;13.07;5.88;;;;;;;;;;2047346;28;20028;-81
2024/04/07 06:51:41;;;;;;;16.35;6.20;;;;;;;;;;2048021;28;20035;-85
2024/04/07 06:53:00;;;;;;;9.40;6.15;;;;;;;;;;2052323;28;20042;-81
2024/04/07 06:54:19;;;;;;;11.02;5.32;;;;;;;;;;2056873;28;20034;-81
2024/04/07 06:55:38;;;;;;;11.05;5.57;;;;;;;;;;2047755;28;20027;-81
2024/04/07 06:56:57;;;;;;;15.43;6.13;;;;;;;;;;2050133;28;20022;-82
2024/04/07 06:58:16;;;;;;;14.95;6.10;;;;;;;;;;2046326;28;20050;-81
2024/04/07 06:59:35;;;;;;;16.30;5.88;;;;;;;;;;2052477;28;20147;-82
2024/04/07 07:00:54;;;;;;;14.52;6.22;;;;;;;;;;2046557;28;20058;-82
2024/04/07 07:02:13;;;;;;;10.13;6.05;;;;;;;;;;2052914;28;20027;-85
2024/04/07 07:03:32;;;;;;;12.70;6.18;;;;;;;;;;2045684;28;20031;-83
2024/04/07 07:04:51;;;;;;;25.40;6.80;;;;;;;;;;2052916;28;20026;-82
2024/04/07 07:06:14;;;;;;;15.00;6.50;;;;;;;;;;2056171;28;20109;-81
2024/04/07 07:07:33;;;;;;;11.85;6.38;;;;;;;;;;2048753;28;20508;-81
2024/04/07 07:08:52;;;;;;;12.00;6.00;;;;;;;;;;2053396;28;20476;-81
2024/04/07 07:10:11;;;;;;;13.10;6.13;;;;;;;;;;2048219;28;20420;-81
2024/04/07 07:11:30;;;;;;;13.50;6.50;;;;;;;;;;2044427;28;20043;-80
2024/04/07 07:12:49;;;;;;;13.77;6.32;;;;;;;;;;2044278;28;20036;-81
2024/04/07 07:14:08;;;;;;;14.15;6.03;;;;;;;;;;2043195;29;20129;-80
2024/04/07 07:15:27;;;;;;;12.30;5.75;;;;;;;;;;2052437;28;20031;-81
2024/04/07 07:16:47;;;;;;;14.98;5.60;;;;;;;;;;2047561;28;20035;-81
2024/04/07 07:18:06;;;;;;;12.98;5.80;;;;;;;;;;2052607;28;20035;-81
2024/04/07 07:19:28;;;;;;;17.05;6.10;;;;;;;;;;2047722;28;20058;-82
2024/04/07 07:20:51;;;;;;;13.60;6.40;;;;;;;;;;2044201;28;20063;-83
2024/04/07 07:22:10;;;;;;;13.15;6.28;;;;;;;;;;2048591;28;20035;-82
2024/04/07 07:23:29;;;;;;;13.15;6.40;;;;;;;;;;2044747;28;20081;-82
2024/04/07 07:24:48;;;;;;;18.52;6.40;;;;;;;;;;2041782;28;20396;-81
2024/04/07 07:26:07;;;;;;;14.77;6.20;;;;;;;;;;2041538;28;20043;-83
2024/04/07 07:27:25;;;;;;;15.13;5.85;;;;;;;;;;2050388;28;20027;-82
2024/04/07 07:28:44;;;;;;;14.88;6.97;;;;;;;;;;2049051;28;20031;-81
2024/04/07 07:30:04;;;;;;;13.93;5.97;;;;;;;;;;2044738;28;20027;-84
2024/04/07 07:31:23;;;;;;;11.52;5.72;;;;;;;;;;2041901;28;20031;-82
2024/04/07 07:32:42;;;;;;;13.77;6.93;;;;;;;;;;2042367;28;20039;-82
2024/04/07 07:34:02;;;;;;;13.57;6.72;;;;;;;;;;2043348;28;20031;-83
2024/04/07 07:35:24;;;;;;;11.23;6.20;;;;;;;;;;2042789;28;20035;-85
2024/04/07 07:36:46;;;;;;;16.60;7.30;;;;;;;;;;2043992;28;21001;-83
2024/04/07 07:38:07;;;;;;;9.93;6.70;;;;;;;;;;2043697;28;20074;-85
2024/04/07 07:39:27;;;;;;;10.07;6.15;;;;;;;;;;2052038;28;20043;-82
2024/04/07 07:40:59;;;;;;;12.73;6.28;;;;;;;;;;2043941;28;20031;-84
2024/04/07 07:42:22;;;;;;;12.95;6.03;;;;;;;;;;2054187;28;20039;-84
2024/04/07 07:43:41;;;;;;;12.20;6.70;;;;;;;;;;2046762;28;20677;-83
2024/04/07 07:45:01;;;;;;;14.23;6.20;;;;;;;;;;2050747;28;20027;-81
2024/04/07 07:46:21;;;;;;;17.17;6.75;;;;;;;;;;2045755;28;20023;-81
2024/04/07 07:47:40;;;;;;;12.35;6.60;;;;;;;;;;2042326;28;20091;-81
2024/04/07 07:49:00;;;;;;;13.27;6.00;;;;;;;;;;2032262;29;20504;-85
2024/04/07 07:50:19;;;;;;;13.77;6.78;;;;;;;;;;2047337;28;20027;-81
2024/04/07 07:51:37;;;;;;;13.88;6.13;;;;;;;;;;2044816;28;20027;-83
2024/04/07 07:52:57;;;;;;;15.65;6.43;;;;;;;;;;2043972;28;20031;-83
2024/04/07 07:54:15;;;;;;;19.08;6.70;;;;;;;;;;2044574;28;20027;-84
2024/04/07 07:55:34;;;;;;;15.93;6.60;;;;;;;;;;2050632;28;20031;-87
2024/04/07 07:56:53;;;;;;;16.25;6.50;;;;;;;;;;2045768;28;21055;-83